Rossie, Iowa
Current Conditions -  °F | °C
As of 10:53 PM on Monday 26 Jan 2015 (Local Time) from KSPW Reporting Station
Clear Clear  
Wind Chill: 24°   Ceiling: Unl
Heat Index: 31°   Visibility: 10mi
Dew Point: 28°   Wind: 7mph
Humidity: 89%   Direction: 310°NW
Pressure: 30"   Gusts: NA
Location:  43.0463°N, 95.2692°W
Report Text: KSPW 270453Z AUTO 31006KT 10SM CLR M01/M02 A3000 RMK AO2 SLP172 T10061022 TSNO
Loading
Personal Weather Stations






























Interactive Weather Map New forecast layout! Learn more

10-Day Weather Forecast

Advertisements
Track Severe Weather on mobile